createdAt,value
2022-12-03T00:01:59.660Z,97304.56
2022-12-03T00:04:26.284Z,97298.53
2022-12-03T00:06:53.144Z,97301.09
2022-12-03T00:09:20.921Z,97295.06
2022-12-03T00:11:48.099Z,97294.25
2022-12-03T00:14:14.692Z,97290.75
2022-12-03T00:16:41.274Z,97290.81
2022-12-03T00:19:07.925Z,97294.25
2022-12-03T00:21:34.918Z,97288.22
2022-12-03T00:24:01.601Z,97297.66
2022-12-03T00:26:28.276Z,97295.94
2022-12-03T00:28:55.219Z,97292.56
2022-12-03T00:31:23.564Z,97291.69
2022-12-03T00:33:51.337Z,97290.81
2022-12-03T00:36:18.828Z,97296.13
2022-12-03T00:38:45.780Z,97290.13
2022-12-03T00:41:13.126Z,97288.28
2022-12-03T00:43:39.805Z,97290.97
2022-12-03T00:46:06.581Z,97283.94
2022-12-03T00:48:33.246Z,97288.34
2022-12-03T00:50:59.891Z,97277.91
2022-12-03T00:53:26.579Z,97287.41
2022-12-03T00:55:53.178Z,97289.06
2022-12-03T00:58:19.753Z,97290.91
2022-12-03T01:00:46.349Z,97290.75
2022-12-03T01:03:12.923Z,97294.31
2022-12-03T01:05:39.948Z,97293.50
2022-12-03T01:08:06.671Z,97292.56
2022-12-03T01:10:33.286Z,97294.31
2022-12-03T01:13:00.126Z,97285.63
2022-12-03T01:15:26.821Z,97289.88
2022-12-03T01:17:54.337Z,97295.16
2022-12-03T01:20:21.039Z,97291.78
2022-12-03T01:22:47.698Z,97296.03
2022-12-03T01:25:14.416Z,97288.34
2022-12-03T01:27:40.989Z,97295.28
2022-12-03T01:30:08.718Z,97294.31
2022-12-03T01:32:35.346Z,97296.94
2022-12-03T01:35:01.899Z,97292.78
2022-12-03T01:37:28.568Z,97294.44
2022-12-03T01:39:55.182Z,97298.81
2022-12-03T01:42:24.476Z,97296.94
2022-12-03T01:44:53.781Z,97297.84
2022-12-03T01:47:24.589Z,97306.50
2022-12-03T01:49:55.520Z,97299.50
2022-12-03T01:52:27.006Z,97303.88
2022-12-03T01:54:56.264Z,97302.25
2022-12-03T01:57:34.244Z,97301.41
2022-12-03T02:00:01.808Z,97297.91
2022-12-03T02:02:32.338Z,97302.38
2022-12-03T02:05:00.853Z,97303.22
2022-12-03T02:07:32.738Z,97302.50
2022-12-03T02:10:01.890Z,97298.97
2022-12-03T02:12:34.288Z,97303.13
2022-12-03T02:15:01.943Z,97307.38
2022-12-03T02:17:28.941Z,97313.38
2022-12-03T02:19:56.808Z,97305.66
2022-12-03T02:22:48.304Z,97306.53
2022-12-03T02:25:44.295Z,97300.38
2022-12-03T02:28:11.049Z,97305.59
2022-12-03T02:30:37.887Z,97304.00
2022-12-03T02:33:05.139Z,97302.47
2022-12-03T02:35:34.753Z,97295.41
2022-12-03T02:38:13.973Z,97296.13
2022-12-03T02:40:42.113Z,97288.41
2022-12-03T02:43:10.553Z,97291.78
2022-12-03T02:45:41.258Z,97287.38
2022-12-03T02:48:19.375Z,97284.91
2022-12-03T02:50:51.070Z,97283.22
2022-12-03T02:53:22.531Z,97297.09
2022-12-03T02:55:50.833Z,97283.25
2022-12-03T02:58:18.357Z,97288.44
2022-12-03T03:00:46.630Z,97303.19
2022-12-03T03:03:13.722Z,97297.13
2022-12-03T03:05:41.545Z,97288.66
2022-12-03T03:08:09.868Z,97283.34
2022-12-03T03:10:39.035Z,97284.16
2022-12-03T03:13:12.241Z,97281.50
2022-12-03T03:15:40.564Z,97288.56
2022-12-03T03:18:08.815Z,97277.22
2022-12-03T03:20:36.128Z,97277.22
2022-12-03T03:23:17.810Z,97275.56
2022-12-03T03:26:09.495Z,97270.44
2022-12-03T03:28:39.292Z,97272.97
2022-12-03T03:31:08.200Z,97270.56
2022-12-03T03:33:36.375Z,97267.84
2022-12-03T03:36:03.324Z,97271.38
2022-12-03T03:38:30.528Z,97276.31
2022-12-03T03:40:58.910Z,97263.41
2022-12-03T03:43:25.909Z,97278.06
2022-12-03T03:45:53.929Z,97266.84
2022-12-03T03:48:21.247Z,97264.25
2022-12-03T03:50:48.945Z,97266.94
2022-12-03T03:53:17.100Z,97259.94
2022-12-03T03:55:43.979Z,97265.19
2022-12-03T03:58:11.027Z,97263.31
2022-12-03T04:00:37.808Z,97257.16
2022-12-03T04:03:05.329Z,97263.28
2022-12-03T04:05:32.031Z,97255.47
2022-12-03T04:07:59.371Z,97258.00
2022-12-03T04:10:44.944Z,97258.94
2022-12-03T04:13:11.590Z,97255.50
2022-12-03T04:15:38.217Z,97252.81
2022-12-03T04:18:23.346Z,97249.38
2022-12-03T04:20:49.921Z,97252.91
2022-12-03T04:23:16.558Z,97246.13
2022-12-03T04:26:01.648Z,97249.56
2022-12-03T04:28:47.011Z,97252.16
2022-12-03T04:31:36.828Z,97252.16
2022-12-03T04:34:22.534Z,97248.72
2022-12-03T04:36:49.164Z,97254.69
2022-12-03T04:39:15.937Z,97253.03
2022-12-03T04:41:42.547Z,97254.78
2022-12-03T04:44:27.703Z,97257.34
2022-12-03T04:46:54.369Z,97259.88
2022-12-03T04:49:21.375Z,97251.88
2022-12-03T04:51:48.040Z,97249.38
2022-12-03T04:54:15.069Z,97251.97
2022-12-03T04:56:41.931Z,97255.19
2022-12-03T04:59:15.770Z,97251.88
2022-12-03T05:01:43.328Z,97260.59
2022-12-03T05:04:10.527Z,97256.94
2022-12-03T05:06:37.204Z,97261.97
2022-12-03T05:09:03.937Z,97255.09
2022-12-03T05:11:31.478Z,97256.94
2022-12-03T05:13:58.079Z,97250.91
2022-12-03T05:16:24.832Z,97251.84
2022-12-03T05:18:51.453Z,97257.81
2022-12-03T05:21:18.059Z,97260.41
2022-12-03T05:23:44.774Z,97260.59
2022-12-03T05:26:11.439Z,97265.91
2022-12-03T05:28:38.047Z,97258.19
2022-12-03T05:31:05.175Z,97261.69
2022-12-03T05:33:31.923Z,97261.66
2022-12-03T05:35:58.663Z,97254.84
2022-12-03T05:38:25.246Z,97248.72
2022-12-03T05:40:51.805Z,97247.81
2022-12-03T05:43:18.385Z,97245.91
2022-12-03T05:45:45.405Z,97238.34
2022-12-03T05:48:15.584Z,97241.75
2022-12-03T05:50:44.378Z,97241.88
2022-12-03T05:53:15.081Z,97240.00
2022-12-03T05:55:41.908Z,97239.91
2022-12-03T05:58:09.199Z,97238.34
2022-12-03T06:00:42.380Z,97231.50
2022-12-03T06:03:09.731Z,97230.13
2022-12-03T06:05:36.453Z,97230.88
2022-12-03T06:08:03.171Z,97230.88
2022-12-03T06:10:30.134Z,97224.84
2022-12-03T06:12:57.031Z,97227.50
2022-12-03T06:15:24.048Z,97230.97
2022-12-03T06:17:50.713Z,97230.03
2022-12-03T06:20:19.998Z,97226.63
2022-12-03T06:22:47.124Z,97225.03
2022-12-03T06:25:14.414Z,97227.66
2022-12-03T06:27:40.996Z,97231.97
2022-12-03T06:30:09.001Z,97226.69
2022-12-03T06:32:35.712Z,97224.22
2022-12-03T06:35:02.387Z,97228.59
2022-12-03T06:37:28.981Z,97220.03
2022-12-03T06:39:55.552Z,97220.06
2022-12-03T06:42:22.145Z,97221.88
2022-12-03T06:44:48.731Z,97232.03
2022-12-03T06:47:15.316Z,97219.97
2022-12-03T06:49:41.925Z,97228.47
2022-12-03T06:52:08.483Z,97232.88
2022-12-03T06:54:35.086Z,97236.53
2022-12-03T06:57:01.740Z,97231.41
2022-12-03T06:59:28.458Z,97233.06
2022-12-03T07:01:55.167Z,97233.75
2022-12-03T07:04:21.788Z,97236.25
2022-12-03T07:06:48.358Z,97228.56
2022-12-03T07:09:17.012Z,97236.47
2022-12-03T07:11:43.612Z,97237.34
2022-12-03T07:14:13.665Z,97227.06
2022-12-03T07:16:43.156Z,97228.81
2022-12-03T07:19:10.677Z,97222.75
2022-12-03T07:21:37.230Z,97225.38
2022-12-03T07:24:04.040Z,97227.13
2022-12-03T07:26:30.618Z,97230.44
2022-12-03T07:28:57.267Z,97227.91
2022-12-03T07:31:23.952Z,97222.53
2022-12-03T07:33:50.590Z,97219.81
2022-12-03T07:36:17.431Z,97230.88
2022-12-03T07:38:44.788Z,97226.72
2022-12-03T07:41:11.434Z,97232.00
2022-12-03T07:43:38.103Z,97225.84
2022-12-03T07:46:04.914Z,97223.38
2022-12-03T07:48:31.540Z,97218.19
2022-12-03T07:50:58.603Z,97222.44
2022-12-03T07:53:25.160Z,97227.53
2022-12-03T07:55:51.807Z,97224.13
2022-12-03T07:58:18.388Z,97225.63
2022-12-03T08:00:44.992Z,97222.94
2022-12-03T08:03:11.594Z,97221.31
2022-12-03T08:05:38.153Z,97227.13
2022-12-03T08:08:05.258Z,97231.59
2022-12-03T08:10:31.970Z,97231.78
2022-12-03T08:12:59.218Z,97227.31
2022-12-03T08:15:32.244Z,97228.03
2022-12-03T08:18:11.582Z,97226.91
2022-12-03T08:20:40.497Z,97229.53
2022-12-03T08:23:12.904Z,97226.03
2022-12-03T08:25:39.538Z,97224.25
2022-12-03T08:28:12.334Z,97226.72
2022-12-03T08:30:39.503Z,97225.63
2022-12-03T08:33:35.783Z,97227.56
2022-12-03T08:36:18.758Z,97231.84
2022-12-03T08:39:34.567Z,97234.31
2022-12-03T08:42:41.900Z,97220.25
2022-12-03T08:45:40.077Z,97229.81
2022-12-03T08:48:27.314Z,97224.91
2022-12-03T08:50:56.400Z,97235.28
2022-12-03T08:53:31.143Z,97230.09
2022-12-03T08:56:28.415Z,97228.47
2022-12-03T08:58:58.732Z,97235.88
2022-12-03T09:01:41.809Z,97232.13
2022-12-03T09:04:23.305Z,97234.72
2022-12-03T09:06:51.170Z,97232.13
2022-12-03T09:09:18.454Z,97229.69
2022-12-03T09:11:45.753Z,97240.06
2022-12-03T09:14:18.346Z,97230.47
2022-12-03T09:16:45.586Z,97239.19
2022-12-03T09:19:12.302Z,97239.19
2022-12-03T09:21:38.894Z,97240.38
2022-12-03T09:24:05.718Z,97240.16
2022-12-03T09:26:32.383Z,97236.63
2022-12-03T09:28:58.973Z,97244.31
2022-12-03T09:31:25.660Z,97245.16
2022-12-03T09:33:52.303Z,97244.16
2022-12-03T09:36:18.941Z,97242.41
2022-12-03T09:38:47.867Z,97244.91
2022-12-03T09:41:15.061Z,97238.06
2022-12-03T09:46:30.296Z,97237.88
2022-12-03T09:48:57.533Z,97235.38
2022-12-03T09:51:31.698Z,97229.75
2022-12-03T09:54:00.279Z,97221.50
2022-12-03T09:56:26.892Z,97215.06
2022-12-03T09:58:53.678Z,97216.31
2022-12-03T10:01:21.350Z,97213.19
2022-12-03T10:03:50.602Z,97211.81
2022-12-03T10:06:21.817Z,97204.31
2022-12-03T10:08:52.039Z,97199.63
2022-12-03T10:11:20.866Z,97200.81
2022-12-03T10:13:47.961Z,97203.19
2022-12-03T10:16:18.231Z,97200.34
2022-12-03T10:18:49.188Z,97199.28
2022-12-03T10:21:25.365Z,97193.75
2022-12-03T10:24:16.608Z,97194.94
2022-12-03T10:26:45.047Z,97190.25
2022-12-03T10:29:13.394Z,97190.19
2022-12-03T10:31:40.590Z,97190.06
2022-12-03T10:34:08.868Z,97188.66
2022-12-03T10:36:35.602Z,97188.66
2022-12-03T10:39:16.429Z,97179.06
2022-12-03T10:41:44.420Z,97186.97
2022-12-03T10:44:13.966Z,97178.38
2022-12-03T10:46:41.350Z,97185.53
2022-12-03T10:49:17.167Z,97186.38
2022-12-03T10:51:45.086Z,97180.06
2022-12-03T10:54:20.159Z,97177.31
2022-12-03T10:56:48.200Z,97171.38
2022-12-03T10:59:23.480Z,97166.25
2022-12-03T11:01:51.012Z,97161.09
2022-12-03T11:04:23.783Z,97157.72
2022-12-03T11:06:51.035Z,97157.44
2022-12-03T11:09:24.943Z,97146.66
2022-12-03T11:11:52.527Z,97151.56
2022-12-03T11:14:54.080Z,97146.03
2022-12-03T11:17:42.577Z,97139.88
2022-12-03T11:20:22.831Z,97141.31
2022-12-03T11:22:59.876Z,97139.53
2022-12-03T11:25:29.371Z,97143.59
2022-12-03T11:28:14.444Z,97142.88
2022-12-03T11:30:50.615Z,97139.22
2022-12-03T11:33:35.240Z,97143.19
2022-12-03T11:36:05.140Z,97135.13
2022-12-03T11:38:37.648Z,97135.13
2022-12-03T11:41:06.913Z,97139.56
2022-12-03T11:43:51.824Z,97135.38
2022-12-03T11:46:24.653Z,97137.91
2022-12-03T11:48:54.105Z,97127.41
2022-12-03T11:51:23.109Z,97125.22
2022-12-03T11:53:52.493Z,97124.19
2022-12-03T11:56:23.672Z,97126.81
2022-12-03T11:58:58.607Z,97125.31
2022-12-03T12:01:38.936Z,97110.38
2022-12-03T12:04:26.500Z,97111.94
2022-12-03T12:06:53.561Z,97104.84
2022-12-03T12:10:05.453Z,97099.63
2022-12-03T12:12:38.410Z,97104.28
2022-12-03T12:15:39.065Z,97101.75
2022-12-03T12:18:40.865Z,97104.06
2022-12-03T12:21:49.865Z,97099.25
2022-12-03T12:24:41.300Z,97101.91
2022-12-03T12:27:11.684Z,97088.91
2022-12-03T12:29:40.839Z,97088.88
2022-12-03T12:32:29.378Z,97083.00
2022-12-03T12:35:19.581Z,97087.34
2022-12-03T12:38:00.836Z,97083.81
2022-12-03T12:40:30.472Z,97078.03
2022-12-03T12:43:08.474Z,97076.91
2022-12-03T12:45:41.992Z,97085.47
2022-12-03T12:48:22.123Z,97082.09
2022-12-03T12:50:53.543Z,97079.50
2022-12-03T12:53:24.811Z,97076.56
2022-12-03T12:55:57.914Z,97076.63
2022-12-03T12:58:25.864Z,97079.09
2022-12-03T13:00:55.737Z,97079.84
2022-12-03T13:03:25.905Z,97080.63
2022-12-03T13:05:53.733Z,97083.34
2022-12-03T13:08:22.084Z,97079.16
2022-12-03T13:10:49.691Z,97082.97
2022-12-03T13:13:19.304Z,97076.03
2022-12-03T13:16:16.144Z,97072.72
2022-12-03T13:18:48.169Z,97076.41
2022-12-03T13:21:23.152Z,97074.63
2022-12-03T13:23:59.107Z,97071.25
2022-12-03T13:26:45.898Z,97069.97
2022-12-03T13:29:18.300Z,97066.53
2022-12-03T13:31:55.659Z,97064.88
2022-12-03T13:34:25.214Z,97064.28
2022-12-03T13:36:58.095Z,97063.25
2022-12-03T13:39:35.137Z,97052.19
2022-12-03T13:42:42.147Z,97054.66
2022-12-03T13:45:14.761Z,97045.22
2022-12-03T13:47:53.170Z,97047.69
2022-12-03T13:50:39.377Z,97053.78
2022-12-03T13:53:33.413Z,97046.09
2022-12-03T13:56:26.449Z,97050.41
2022-12-03T13:58:53.762Z,97047.84
2022-12-03T14:01:20.705Z,97047.06
2022-12-03T14:03:47.422Z,97041.75
2022-12-03T14:06:14.508Z,97046.09
2022-12-03T14:08:41.110Z,97042.56
2022-12-03T14:11:07.943Z,97040.78
2022-12-03T14:13:34.522Z,97041.69
2022-12-03T14:16:01.097Z,97036.56
2022-12-03T14:18:27.713Z,97037.53
2022-12-03T14:20:54.310Z,97035.63
2022-12-03T14:23:20.894Z,97034.69
2022-12-03T14:25:47.507Z,97028.91
2022-12-03T14:28:14.079Z,97041.03
2022-12-03T14:30:40.858Z,97037.34
2022-12-03T14:33:07.631Z,97042.16
2022-12-03T14:35:35.441Z,97036.38
2022-12-03T14:38:01.995Z,97032.84
2022-12-03T14:40:28.590Z,97038.81
2022-12-03T14:42:55.187Z,97038.81
2022-12-03T14:45:23.024Z,97032.84
2022-12-03T14:47:49.706Z,97029.63
2022-12-03T14:50:16.288Z,97032.50
2022-12-03T14:52:43.332Z,97034.00
2022-12-03T14:55:10.052Z,97033.38
2022-12-03T14:57:37.724Z,97034.97
2022-12-03T15:00:07.101Z,97039.44
2022-12-03T15:02:33.874Z,97035.09
2022-12-03T15:05:00.512Z,97036.69
2022-12-03T15:07:27.123Z,97033.16
2022-12-03T15:09:54.162Z,97030.19
2022-12-03T15:12:21.461Z,97033.75
2022-12-03T15:14:48.245Z,97033.63
2022-12-03T15:17:15.002Z,97028.72
2022-12-03T15:19:41.738Z,97040.16
2022-12-03T15:22:08.290Z,97042.00
2022-12-03T15:24:34.923Z,97043.13
2022-12-03T15:27:01.487Z,97038.97
2022-12-03T15:29:28.101Z,97047.00
2022-12-03T15:31:54.803Z,97053.75
2022-12-03T15:34:23.161Z,97048.44
2022-12-03T15:36:52.400Z,97050.28
2022-12-03T15:39:19.480Z,97048.69
2022-12-03T15:41:46.072Z,97054.56
2022-12-03T15:44:12.643Z,97049.25
2022-12-03T15:46:39.281Z,97044.25
2022-12-03T15:49:05.910Z,97046.00
2022-12-03T15:51:32.887Z,97042.59
2022-12-03T15:53:59.466Z,97042.53
2022-12-03T15:56:26.096Z,97038.06
2022-12-03T15:58:53.642Z,97040.00
2022-12-03T16:01:20.345Z,97034.84
2022-12-03T16:03:47.078Z,97039.84
2022-12-03T16:06:14.746Z,97039.91
2022-12-03T16:08:41.411Z,97043.22
2022-12-03T16:11:08.048Z,97040.75
2022-12-03T16:13:34.676Z,97041.91
2022-12-03T16:16:01.378Z,97047.78
2022-12-03T16:18:28.059Z,97043.50
2022-12-03T16:20:54.750Z,97047.03
2022-12-03T16:23:21.349Z,97043.56
2022-12-03T16:25:47.957Z,97045.19
2022-12-03T16:28:14.782Z,97046.16
2022-12-03T16:30:41.612Z,97038.38
2022-12-03T16:33:08.203Z,97039.38
2022-12-03T16:35:34.807Z,97040.13
2022-12-03T16:38:01.374Z,97033.13
2022-12-03T16:40:27.984Z,97046.09
2022-12-03T16:42:56.361Z,97043.56
2022-12-03T16:45:41.163Z,97037.53
2022-12-03T16:48:08.023Z,97037.53
2022-12-03T16:50:37.553Z,97039.16
2022-12-03T16:53:04.174Z,97027.06
2022-12-03T16:55:31.062Z,97036.63
2022-12-03T16:57:57.804Z,97030.66
2022-12-03T17:00:26.316Z,97034.03
2022-12-03T17:02:53.090Z,97033.97
2022-12-03T17:05:20.243Z,97032.44
2022-12-03T17:07:47.262Z,97025.41
2022-12-03T17:10:14.096Z,97023.63
2022-12-03T17:13:08.355Z,97021.97
2022-12-03T17:15:28.233Z,97025.63
2022-12-03T17:17:55.021Z,97012.53
2022-12-03T17:20:21.642Z,97021.97
2022-12-03T17:22:49.192Z,97018.59
2022-12-03T17:25:16.253Z,97030.81
2022-12-03T17:27:45.365Z,97016.19
2022-12-03T17:30:13.273Z,97011.81
2022-12-03T17:32:39.972Z,97020.28
2022-12-03T17:35:07.307Z,97020.44
2022-12-03T17:37:34.720Z,97018.75
2022-12-03T17:40:01.704Z,97010.91
2022-12-03T17:42:28.650Z,97006.31
2022-12-03T17:44:55.639Z,97018.31
2022-12-03T17:47:24.397Z,97010.53
2022-12-03T17:49:51.981Z,97014.94
2022-12-03T17:52:19.153Z,97010.50
2022-12-03T17:55:10.115Z,97014.94
2022-12-03T17:57:33.925Z,97005.44
2022-12-03T18:00:01.492Z,97005.25
2022-12-03T18:02:28.389Z,97004.63
2022-12-03T18:04:55.275Z,96997.63
2022-12-03T18:07:21.906Z,96989.91
2022-12-03T18:09:48.478Z,96994.19
2022-12-03T18:12:15.079Z,96988.16
2022-12-03T18:14:41.705Z,96991.66
2022-12-03T18:17:08.389Z,96995.94
2022-12-03T18:19:34.963Z,96994.13
2022-12-03T18:22:01.574Z,96993.06
2022-12-03T18:24:28.149Z,96995.66
2022-12-03T18:26:54.765Z,96988.81
2022-12-03T18:29:21.391Z,96990.59
2022-12-03T18:31:48.023Z,96984.56
2022-12-03T18:34:14.974Z,96991.50
2022-12-03T18:36:41.987Z,96994.22
2022-12-03T18:39:18.853Z,96989.78
2022-12-03T18:41:45.548Z,96991.50
2022-12-03T18:44:12.502Z,96984.50
2022-12-03T18:46:53.633Z,96984.41
2022-12-03T18:49:20.746Z,96982.75
2022-12-03T18:51:48.435Z,96987.88
2022-12-03T18:54:15.611Z,96989.00
2022-12-03T18:56:42.244Z,96978.69
2022-12-03T18:59:09.074Z,96975.13
2022-12-03T19:01:36.111Z,96980.31
2022-12-03T19:04:03.027Z,96975.22
2022-12-03T19:06:30.615Z,96983.75
2022-12-03T19:08:57.337Z,96976.25
2022-12-03T19:11:24.122Z,96975.25
2022-12-03T19:13:51.323Z,96968.44
2022-12-03T19:16:18.049Z,96976.22
2022-12-03T19:18:45.012Z,96969.97
2022-12-03T19:21:14.350Z,96968.34
2022-12-03T19:23:44.573Z,96964.72
2022-12-03T19:26:30.360Z,96972.53
2022-12-03T19:28:57.297Z,96964.81
2022-12-03T19:31:23.954Z,96965.84
2022-12-03T19:33:51.777Z,96969.19
2022-12-03T19:36:24.917Z,96964.19
2022-12-03T19:38:56.953Z,96972.81
2022-12-03T19:41:27.404Z,96968.47
2022-12-03T19:43:55.871Z,96968.44
2022-12-03T19:46:24.528Z,96964.03
2022-12-03T19:48:51.626Z,96968.31
2022-12-03T19:51:34.035Z,96963.88
2022-12-03T19:54:02.298Z,96959.69
2022-12-03T19:56:30.437Z,96959.59
2022-12-03T19:58:58.012Z,96960.47
2022-12-03T20:01:27.858Z,96958.75
2022-12-03T20:03:57.608Z,96964.72
2022-12-03T20:06:28.257Z,96956.09
2022-12-03T20:09:03.362Z,96951.66
2022-12-03T20:11:32.181Z,96948.16
2022-12-03T20:14:05.513Z,96947.41
2022-12-03T20:16:32.789Z,96952.59
2022-12-03T20:19:01.769Z,96953.41
2022-12-03T20:21:31.460Z,96956.78
2022-12-03T20:23:58.891Z,96951.88
2022-12-03T20:26:27.346Z,96959.47
2022-12-03T20:28:55.071Z,96957.00
2022-12-03T20:31:24.166Z,96962.84
2022-12-03T20:33:54.911Z,96959.41
2022-12-03T20:36:22.807Z,96961.06
2022-12-03T20:38:54.200Z,96961.84
2022-12-03T20:41:20.984Z,96964.50
2022-12-03T20:43:47.996Z,96952.38
2022-12-03T20:46:26.378Z,96954.28
2022-12-03T20:48:54.231Z,96960.31
2022-12-03T20:51:23.377Z,96956.03
2022-12-03T20:53:50.684Z,96955.38
2022-12-03T20:56:24.569Z,96957.78
2022-12-03T20:58:51.202Z,96959.47
2022-12-03T21:01:20.796Z,96954.28
2022-12-03T21:03:48.156Z,96962.25
2022-12-03T21:06:15.521Z,96953.59
2022-12-03T21:08:43.286Z,96952.78
2022-12-03T21:11:11.517Z,96956.19
2022-12-03T21:13:41.602Z,96965.63
2022-12-03T21:16:10.790Z,96953.50
2022-12-03T21:18:38.329Z,96943.97
2022-12-03T21:21:05.763Z,96939.59
2022-12-03T21:23:33.433Z,96943.94
2022-12-03T21:26:08.459Z,96936.19
2022-12-03T21:28:35.411Z,96939.47
2022-12-03T21:31:05.798Z,96943.03
2022-12-03T21:33:33.078Z,96943.81
2022-12-03T21:36:00.222Z,96938.63
2022-12-03T21:38:28.013Z,96942.09
2022-12-03T21:40:55.666Z,96940.16
2022-12-03T21:43:22.943Z,96933.19
2022-12-03T21:45:49.990Z,96939.25
2022-12-03T21:48:16.935Z,96940.22
2022-12-03T21:50:44.186Z,96938.56
2022-12-03T21:53:11.025Z,96930.16
2022-12-03T21:55:41.251Z,96932.66
2022-12-03T21:58:08.778Z,96930.00
2022-12-03T22:00:36.122Z,96938.66
2022-12-03T22:03:02.802Z,96930.91
2022-12-03T22:05:29.440Z,96926.56
2022-12-03T22:07:56.075Z,96925.94
2022-12-03T22:10:22.783Z,96927.34
2022-12-03T22:12:49.383Z,96936.72
2022-12-03T22:15:19.201Z,96925.44
2022-12-03T22:17:46.467Z,96928.19
2022-12-03T22:20:13.238Z,96924.81
2022-12-03T22:22:39.884Z,96926.44
2022-12-03T22:25:06.736Z,96919.41
2022-12-03T22:27:33.479Z,96920.38
2022-12-03T22:30:00.143Z,96921.31
2022-12-03T22:32:26.948Z,96926.50
2022-12-03T22:34:53.760Z,96917.66
2022-12-03T22:37:20.444Z,96918.38
2022-12-03T22:39:47.098Z,96921.09
2022-12-03T22:42:13.706Z,96915.06
2022-12-03T22:44:40.279Z,96905.41
2022-12-03T22:47:06.870Z,96913.31
2022-12-03T22:49:33.571Z,96919.50
2022-12-03T22:52:00.163Z,96907.97
2022-12-03T22:54:26.746Z,96910.44
2022-12-03T22:56:53.359Z,96908.72
2022-12-03T22:59:19.987Z,96912.34
2022-12-03T23:01:47.366Z,96909.94
2022-12-03T23:04:14.137Z,96908.53
2022-12-03T23:06:41.239Z,96907.63
2022-12-03T23:09:08.055Z,96900.75
2022-12-03T23:11:34.900Z,96897.38
2022-12-03T23:14:02.039Z,96902.38
2022-12-03T23:16:30.883Z,96903.34
2022-12-03T23:18:59.377Z,96898.78
2022-12-03T23:21:30.175Z,96903.50
2022-12-03T23:24:01.328Z,96892.13
2022-12-03T23:26:28.387Z,96892.25
2022-12-03T23:28:55.805Z,96889.66
2022-12-03T23:31:24.202Z,96873.94
2022-12-03T23:33:52.391Z,96890.50
2022-12-03T23:36:19.601Z,96883.50
2022-12-03T23:38:46.834Z,96866.34
2022-12-03T23:41:19.342Z,96865.41
2022-12-03T23:43:46.261Z,96857.72
2022-12-03T23:46:15.902Z,96859.44
2022-12-03T23:48:42.962Z,96851.66
2022-12-03T23:51:14.694Z,96859.09
2022-12-03T23:53:41.535Z,96864.31
2022-12-03T23:56:10.210Z,96859.94
2022-12-03T23:58:38.590Z,96861.63
